Time;durP1;ratioP1;P1;durP2;ratioP2;P2;SDS_P1;SDS_P2;PMS_P1;PMS_P2;Temp;Humidity;BMP_temperature;BMP_pressure;BME280_temperature;BME280_humidity;BME280_pressure;Samples;Min_cycle;Max_cycle;Signal;HPM_P1;HPM_P2
2024/01/09 00:01:10;;;;;;;36.20;33.20;;;-6.30;90.00;;;;;;5036243;28;20188;-89
2024/01/09 00:03:36;;;;;;;31.93;29.13;;;-6.20;90.00;;;;;;5036016;28;20180;-89
2024/01/09 00:06:01;;;;;;;22.60;14.17;;;-6.20;90.10;;;;;;5053852;28;20595;-89
2024/01/09 00:08:27;;;;;;;15.67;13.90;;;-6.10;90.20;;;;;;5035810;28;20172;-89
2024/01/09 00:10:52;;;;;;;29.07;26.60;;;-6.10;90.20;;;;;;5037123;28;20196;-88
2024/01/09 00:13:18;;;;;;;31.90;28.77;;;-6.10;90.30;;;;;;5036333;28;20196;-89
2024/01/09 00:15:44;;;;;;;33.43;29.87;;;-6.10;90.40;;;;;;5035454;28;20175;-89
2024/01/09 00:18:09;;;;;;;30.40;27.90;;;-6.10;90.40;;;;;;5035359;28;20190;-89
2024/01/09 00:20:35;;;;;;;16.13;13.57;;;-6.20;90.30;;;;;;5035455;28;20235;-89
2024/01/09 00:23:00;;;;;;;16.90;13.40;;;-6.30;90.40;;;;;;5035718;28;20538;-89
2024/01/09 00:25:26;;;;;;;31.07;28.30;;;-6.30;90.40;;;;;;5035526;28;20176;-89
2024/01/09 00:27:51;;;;;;;32.00;29.40;;;-6.30;90.40;;;;;;5035378;28;20180;-89
2024/01/09 00:30:19;;;;;;;34.00;30.47;;;-6.40;90.40;;;;;;5035382;28;20199;-89
2024/01/09 00:32:47;;;;;;;31.73;28.93;;;-6.50;90.40;;;;;;5035898;28;20256;-89
2024/01/09 00:35:14;;;;;;;19.17;14.87;;;-6.50;90.50;;;;;;5039997;28;20172;-89
2024/01/09 00:37:40;;;;;;;20.87;15.63;;;-6.50;90.50;;;;;;5039767;28;20171;-89
2024/01/09 00:40:06;;;;;;;33.73;30.50;;;-6.40;90.70;;;;;;5040042;28;20202;-89
2024/01/09 00:42:32;;;;;;;34.70;31.57;;;-6.40;90.60;;;;;;5039716;28;20183;-88
2024/01/09 00:45:00;;;;;;;31.17;28.60;;;-6.30;90.70;;;;;;5057651;28;20223;-89
2024/01/09 00:47:26;;;;;;;20.33;15.80;;;-6.30;90.70;;;;;;5041094;28;20221;-89
2024/01/09 00:49:52;;;;;;;17.57;15.13;;;-6.40;90.60;;;;;;5042625;28;20203;-93
2024/01/09 00:52:18;;;;;;;16.80;15.00;;;-6.40;90.70;;;;;;5047523;28;20191;-90
2024/01/09 00:54:43;;;;;;;30.07;27.67;;;-6.40;90.70;;;;;;5061170;28;20268;-89
2024/01/09 00:57:09;;;;;;;32.40;29.73;;;-6.50;90.70;;;;;;5046480;28;20259;-91
2024/01/09 00:59:35;;;;;;;35.47;32.47;;;-6.60;90.60;;;;;;5055141;28;20194;-90
2024/01/09 01:02:03;;;;;;;17.50;15.67;;;-6.60;90.70;;;;;;5051472;28;20207;-91
2024/01/09 01:04:29;;;;;;;20.33;15.83;;;-6.60;90.70;;;;;;5058424;28;20180;-90
2024/01/09 01:06:54;;;;;;;32.90;29.80;;;-6.60;90.70;;;;;;5056849;28;20237;-90
2024/01/09 01:09:20;;;;;;;32.23;29.20;;;-6.60;90.70;;;;;;5039316;28;20233;-89
2024/01/09 01:11:46;;;;;;;35.40;31.80;;;-6.70;90.70;;;;;;5039981;28;20180;-90
2024/01/09 01:14:11;;;;;;;38.07;34.53;;;-6.70;90.70;;;;;;5056686;28;20211;-89
2024/01/09 01:16:37;;;;;;;23.57;17.03;;;-6.80;90.70;;;;;;5038638;28;20595;-90
2024/01/09 01:19:02;;;;;;;19.50;15.77;;;-6.80;90.70;;;;;;5039234;28;20194;-89
2024/01/09 01:21:28;;;;;;;32.83;29.93;;;-6.80;90.80;;;;;;5038978;28;20217;-89
2024/01/09 01:23:53;;;;;;;32.53;29.53;;;-6.70;90.90;;;;;;5039005;28;20183;-89
2024/01/09 01:26:19;;;;;;;30.87;28.17;;;-6.60;91.00;;;;;;5055867;28;20531;-89
2024/01/09 01:28:44;;;;;;;18.73;15.37;;;-6.50;91.10;;;;;;5038845;28;20184;-90
2024/01/09 01:31:10;;;;;;;20.13;14.53;;;-6.50;91.10;;;;;;5038914;28;20687;-89
2024/01/09 01:33:35;;;;;;;20.27;14.73;;;-6.50;91.10;;;;;;5056597;28;20192;-90
2024/01/09 01:36:01;;;;;;;33.07;29.97;;;-6.60;91.10;;;;;;5039020;28;20176;-89
2024/01/09 01:38:27;;;;;;;35.03;32.10;;;-6.60;91.10;;;;;;5055532;28;20195;-90
2024/01/09 01:40:52;;;;;;;35.27;32.27;;;-6.60;91.10;;;;;;5055050;28;20258;-89
2024/01/09 01:43:18;;;;;;;20.23;15.87;;;-6.60;91.20;;;;;;5038464;28;20190;-89
2024/01/09 01:45:43;;;;;;;18.63;16.20;;;-6.60;91.10;;;;;;5055155;28;20180;-89
2024/01/09 01:48:10;;;;;;;31.07;28.23;;;-6.50;91.20;;;;;;5038505;28;20671;-89
2024/01/09 01:50:37;;;;;;;32.73;28.70;;;-6.60;91.20;;;;;;5038626;28;20202;-90
2024/01/09 01:53:05;;;;;;;34.97;31.97;;;-6.60;91.20;;;;;;5038122;28;20204;-89
2024/01/09 01:55:31;;;;;;;34.77;31.77;;;-6.50;91.20;;;;;;5038040;28;20184;-90
2024/01/09 01:57:58;;;;;;;20.00;16.47;;;-6.50;91.20;;;;;;5038209;28;20179;-90
2024/01/09 02:00:25;;;;;;;21.50;16.37;;;-6.50;91.20;;;;;;5056454;28;20199;-90
2024/01/09 02:02:53;;;;;;;33.60;30.67;;;-6.50;91.20;;;;;;5037864;28;20179;-89
2024/01/09 02:05:21;;;;;;;34.73;31.73;;;-6.40;91.20;;;;;;5055865;28;20168;-89
2024/01/09 02:07:47;;;;;;;39.40;35.90;;;-6.50;91.10;;;;;;5038077;28;20180;-89
2024/01/09 02:10:13;;;;;;;33.43;30.10;;;-6.40;91.20;;;;;;5055657;28;20278;-90
2024/01/09 02:12:39;;;;;;;18.57;16.47;;;-6.40;91.20;;;;;;5055403;28;20195;-90
2024/01/09 02:15:05;;;;;;;21.33;17.27;;;-6.30;91.30;;;;;;5038367;28;20273;-90
2024/01/09 02:17:31;;;;;;;32.77;29.73;;;-6.40;91.20;;;;;;5038118;28;20703;-89
2024/01/09 02:19:59;;;;;;;36.97;33.80;;;-6.50;91.10;;;;;;5037763;28;20612;-89
2024/01/09 02:22:24;;;;;;;40.33;37.00;;;-6.50;91.10;;;;;;5038708;28;20172;-89
2024/01/09 02:24:50;;;;;;;18.43;16.43;;;-6.50;91.10;;;;;;5037938;28;20271;-90
2024/01/09 02:27:30;;;;;;;19.97;17.50;;;-6.50;91.10;;;;;;5055469;28;20180;-90
2024/01/09 02:29:56;;;;;;;36.40;33.20;;;-6.60;91.00;;;;;;5053868;28;20192;-89
2024/01/09 02:32:22;;;;;;;40.30;36.97;;;-6.60;91.00;;;;;;5037167;28;20249;-90
2024/01/09 02:34:48;;;;;;;41.60;38.00;;;-6.60;91.00;;;;;;5037554;28;20175;-89
2024/01/09 02:37:14;;;;;;;43.83;40.00;;;-6.50;91.00;;;;;;5037326;28;20176;-90
2024/01/09 02:39:40;;;;;;;21.13;18.43;;;-6.50;90.90;;;;;;5037589;28;20195;-89
2024/01/09 02:42:06;;;;;;;21.00;18.77;;;-6.60;90.80;;;;;;5037527;28;20196;-89
2024/01/09 02:44:31;;;;;;;36.70;33.63;;;-6.60;90.80;;;;;;5038099;28;20261;-89
2024/01/09 02:46:57;;;;;;;39.50;35.67;;;-6.60;90.80;;;;;;5037376;28;20218;-89
2024/01/09 02:49:22;;;;;;;39.90;35.33;;;-6.60;90.80;;;;;;5037229;28;20597;-89
2024/01/09 02:51:48;;;;;;;49.47;37.40;;;-6.70;90.80;;;;;;5053829;28;20267;-89
2024/01/09 02:54:14;;;;;;;31.63;16.97;;;-6.70;90.90;;;;;;5055137;28;20219;-89
2024/01/09 02:56:39;;;;;;;37.80;16.97;;;-6.80;90.80;;;;;;5036966;28;20269;-90
2024/01/09 02:59:05;;;;;;;56.77;33.00;;;-6.90;90.80;;;;;;5037151;28;20656;-89
2024/01/09 03:01:31;;;;;;;38.90;34.77;;;-7.00;90.80;;;;;;5037198;28;20577;-88
2024/01/09 03:03:56;;;;;;;77.73;33.20;;;-7.00;90.80;;;;;;5037240;28;20271;-89
2024/01/09 03:06:22;;;;;;;26.60;20.67;;;-7.10;90.90;;;;;;5037708;28;20187;-89
2024/01/09 03:08:48;;;;;;;37.77;18.23;;;-7.20;90.80;;;;;;5036959;28;20172;-89
2024/01/09 03:11:16;;;;;;;60.07;20.23;;;-7.20;90.90;;;;;;5053761;28;20206;-88
2024/01/09 03:13:42;;;;;;;62.00;32.60;;;-7.20;91.00;;;;;;5036693;28;20278;-89
2024/01/09 03:16:14;;;;;;;65.60;33.97;;;-7.30;91.00;;;;;;5036898;28;20664;-89
2024/01/09 03:18:41;;;;;;;102.00;34.60;;;-7.30;91.10;;;;;;5036680;28;20179;-89
2024/01/09 03:21:06;;;;;;;80.70;19.87;;;-7.20;91.30;;;;;;5036865;28;20195;-89
2024/01/09 03:23:32;;;;;;;177.50;22.50;;;-7.10;91.30;;;;;;5036985;28;20203;-89
2024/01/09 03:25:58;;;;;;;59.67;33.83;;;-7.10;91.30;;;;;;5036581;28;20274;-90
2024/01/09 03:28:25;;;;;;;109.57;34.67;;;-7.20;91.30;;;;;;5036524;28;20211;-89
2024/01/09 03:30:50;;;;;;;107.37;37.60;;;-7.40;91.30;;;;;;5054333;28;20199;-89
2024/01/09 03:33:16;;;;;;;92.67;38.07;;;-7.50;91.40;;;;;;5054500;28;20204;-89
2024/01/09 03:35:42;;;;;;;69.60;20.57;;;-7.40;91.50;;;;;;5036891;28;20228;-90
2024/01/09 03:38:07;;;;;;;43.00;20.87;;;-7.50;91.50;;;;;;5036528;28;20182;-89
2024/01/09 03:40:33;;;;;;;47.47;33.27;;;-7.50;91.60;;;;;;5053004;28;20212;-89
2024/01/09 03:42:59;;;;;;;47.10;34.53;;;-7.40;91.70;;;;;;5052962;28;20194;-89
2024/01/09 03:45:24;;;;;;;43.43;35.00;;;-7.30;91.80;;;;;;5053940;28;20180;-89
2024/01/09 03:47:50;;;;;;;40.20;35.93;;;-7.30;91.80;;;;;;5054021;28;20234;-88
2024/01/09 03:50:15;;;;;;;49.27;21.77;;;-7.30;91.90;;;;;;5036219;28;20228;-89
2024/01/09 03:52:41;;;;;;;39.50;22.47;;;-7.30;91.90;;;;;;5036093;28;20209;-89
2024/01/09 03:55:07;;;;;;;112.10;34.90;;;-7.30;91.90;;;;;;5036368;28;20559;-89
2024/01/09 03:57:32;;;;;;;111.13;34.60;;;-7.30;91.90;;;;;;5053814;28;20183;-89
2024/01/09 03:59:58;;;;;;;201.67;39.53;;;-7.30;92.00;;;;;;5035910;28;20199;-89
2024/01/09 04:02:23;;;;;;;181.97;40.37;;;-7.30;92.00;;;;;;5053754;28;20182;-89
2024/01/09 04:04:49;;;;;;;267.63;27.80;;;-7.40;91.90;;;;;;5053780;28;20728;-89
2024/01/09 04:07:14;;;;;;;262.97;26.03;;;-7.50;91.90;;;;;;5053834;28;20253;-89
2024/01/09 04:09:40;;;;;;;266.87;33.50;;;-7.60;91.90;;;;;;5053345;28;20277;-89
2024/01/09 04:12:05;;;;;;;217.87;33.83;;;-7.80;91.80;;;;;;5035960;28;20282;-89
2024/01/09 04:14:31;;;;;;;204.90;35.77;;;-8.00;91.80;;;;;;5035715;28;20178;-88
2024/01/09 04:16:56;;;;;;;159.73;37.80;;;-8.10;91.70;;;;;;5053795;28;20168;-89
2024/01/09 04:19:22;;;;;;;177.53;22.97;;;-8.10;91.80;;;;;;5036176;28;20249;-89
2024/01/09 04:21:48;;;;;;;146.10;20.90;;;-8.00;91.90;;;;;;5035825;28;20173;-88
2024/01/09 04:24:13;;;;;;;120.43;33.00;;;-7.90;92.00;;;;;;5035921;28;20191;-89
2024/01/09 04:26:39;;;;;;;208.20;36.03;;;-7.90;92.00;;;;;;5036142;28;20189;-88
2024/01/09 04:29:05;;;;;;;280.97;36.03;;;-7.80;92.00;;;;;;5053803;28;20214;-89
2024/01/09 04:31:30;;;;;;;197.40;35.53;;;-7.80;92.10;;;;;;5052051;28;20336;-89
2024/01/09 04:33:56;;;;;;;233.13;23.40;;;-7.70;92.10;;;;;;5035762;28;20710;-88
2024/01/09 04:36:21;;;;;;;136.93;20.00;;;-7.70;92.10;;;;;;5053135;28;20177;-89
2024/01/09 04:38:47;;;;;;;179.27;32.17;;;-7.70;92.10;;;;;;5035878;28;20179;-89
2024/01/09 04:41:19;;;;;;;153.07;31.60;;;-7.80;92.10;;;;;;5051990;28;20195;-88
2024/01/09 04:43:46;;;;;;;83.73;32.37;;;-7.80;92.10;;;;;;5035690;28;20559;-89
2024/01/09 04:46:11;;;;;;;103.80;25.97;;;-7.80;92.20;;;;;;5035448;28;20173;-88
2024/01/09 04:48:37;;;;;;;61.70;21.23;;;-7.70;92.20;;;;;;5035454;28;20191;-88
2024/01/09 04:51:02;;;;;;;46.53;21.87;;;-7.60;92.30;;;;;;5052351;28;20730;-89
2024/01/09 04:53:28;;;;;;;45.57;32.70;;;-7.60;92.30;;;;;;5052057;28;20196;-89
2024/01/09 04:55:53;;;;;;;40.77;32.07;;;-7.60;92.30;;;;;;5035344;28;20202;-89
2024/01/09 04:58:19;;;;;;;39.10;31.23;;;-7.60;92.30;;;;;;5035255;28;20178;-89
2024/01/09 05:00:46;;;;;;;35.00;20.93;;;-7.60;92.30;;;;;;5035360;28;20294;-89
2024/01/09 05:03:12;;;;;;;35.40;21.70;;;-7.50;92.40;;;;;;5035229;28;20226;-90
2024/01/09 05:05:37;;;;;;;35.03;22.70;;;-7.40;92.40;;;;;;5051623;28;20211;-89
2024/01/09 05:08:03;;;;;;;38.73;31.93;;;-7.40;92.30;;;;;;5034987;28;20564;-89
2024/01/09 05:10:30;;;;;;;49.07;34.23;;;-7.40;92.40;;;;;;5034994;28;20225;-90
2024/01/09 05:12:56;;;;;;;42.63;36.13;;;-7.30;92.40;;;;;;5035110;28;20199;-89
2024/01/09 05:15:22;;;;;;;39.23;23.77;;;-7.30;92.40;;;;;;5052778;28;20179;-89
2024/01/09 05:17:47;;;;;;;46.13;24.97;;;-7.20;92.50;;;;;;5034979;28;20225;-89
2024/01/09 05:20:13;;;;;;;44.10;26.37;;;-7.00;92.50;;;;;;5037516;28;20299;-89
2024/01/09 05:22:39;;;;;;;46.20;35.40;;;-7.00;92.50;;;;;;5055394;28;20180;-89
2024/01/09 05:25:06;;;;;;;48.97;35.53;;;-6.90;92.50;;;;;;5055196;28;20179;-89
2024/01/09 05:27:32;;;;;;;44.47;34.93;;;-6.90;92.50;;;;;;5055199;28;20655;-89
2024/01/09 05:29:58;;;;;;;41.97;22.10;;;-6.90;92.50;;;;;;5038499;28;20207;-89
2024/01/09 05:32:24;;;;;;;36.13;21.33;;;-7.10;92.30;;;;;;5056485;28;20748;-89
2024/01/09 05:34:49;;;;;;;38.57;32.10;;;-7.00;92.30;;;;;;5056367;28;20199;-89
2024/01/09 05:37:15;;;;;;;44.17;35.63;;;-7.10;92.30;;;;;;5055170;28;20275;-89
2024/01/09 05:39:46;;;;;;;41.03;36.83;;;-7.10;92.30;;;;;;5038488;28;20200;-89
2024/01/09 05:42:12;;;;;;;50.03;42.03;;;-7.20;92.20;;;;;;5038357;28;20174;-89
2024/01/09 05:44:37;;;;;;;35.53;21.70;;;-7.30;92.10;;;;;;5038411;28;20256;-89
2024/01/09 05:47:03;;;;;;;31.73;21.77;;;-7.40;92.10;;;;;;5039131;28;20434;-89
2024/01/09 05:49:29;;;;;;;42.50;38.70;;;-7.40;92.00;;;;;;5038487;28;20180;-91
2024/01/09 05:51:54;;;;;;;43.90;39.30;;;-7.40;92.00;;;;;;5056826;28;20524;-89
2024/01/09 05:54:20;;;;;;;45.70;41.60;;;-7.40;92.00;;;;;;5037879;28;20702;-89
2024/01/09 05:56:45;;;;;;;50.57;45.83;;;-7.40;92.00;;;;;;5038266;28;20208;-89
2024/01/09 05:59:11;;;;;;;25.80;22.30;;;-7.50;91.80;;;;;;5038231;28;20638;-89
2024/01/09 06:01:36;;;;;;;26.73;22.60;;;-7.60;91.80;;;;;;5038435;28;20196;-89
2024/01/09 06:04:02;;;;;;;48.13;43.90;;;-7.60;91.70;;;;;;5055989;28;20176;-89
2024/01/09 06:06:28;;;;;;;51.93;47.23;;;-7.70;91.60;;;;;;5055222;28;20206;-88
2024/01/09 06:08:54;;;;;;;49.00;44.27;;;-7.80;91.30;;;;;;5056415;28;20184;-89
2024/01/09 06:11:19;;;;;;;36.47;32.63;;;-8.00;91.20;;;;;;5054414;28;20584;-89
2024/01/09 06:13:45;;;;;;;31.10;24.93;;;-7.90;91.20;;;;;;5056196;28;20209;-89
2024/01/09 06:16:10;;;;;;;28.30;22.80;;;-8.00;91.10;;;;;;5038019;28;20187;-89
2024/01/09 06:18:36;;;;;;;43.57;39.03;;;-7.90;91.20;;;;;;5055798;28;20192;-89
2024/01/09 06:21:02;;;;;;;43.27;39.00;;;-7.90;91.10;;;;;;5055502;28;20242;-89
2024/01/09 06:23:27;;;;;;;43.53;39.17;;;-7.80;91.20;;;;;;5037636;28;20213;-89
2024/01/09 06:25:54;;;;;;;36.90;31.93;;;-7.80;91.00;;;;;;5054403;28;20206;-89
2024/01/09 06:28:20;;;;;;;35.77;25.67;;;-7.70;91.00;;;;;;5037273;28;20270;-90
2024/01/09 06:30:46;;;;;;;32.33;25.03;;;-7.70;91.00;;;;;;5054722;28;20199;-89
2024/01/09 06:33:11;;;;;;;40.90;36.60;;;-7.80;91.00;;;;;;5037037;28;20277;-89
2024/01/09 06:35:37;;;;;;;39.27;35.33;;;-7.70;91.00;;;;;;5037282;28;20268;-90
2024/01/09 06:38:02;;;;;;;38.43;34.57;;;-7.80;91.00;;;;;;5037128;28;20184;-89
2024/01/09 06:40:28;;;;;;;34.83;31.33;;;-7.80;90.90;;;;;;5037052;28;20194;-90
2024/01/09 06:42:53;;;;;;;30.67;23.10;;;-7.70;91.00;;;;;;5054921;28;20184;-89
2024/01/09 06:45:19;;;;;;;28.43;21.83;;;-7.70;91.00;;;;;;5054979;28;20271;-89
2024/01/09 06:47:45;;;;;;;41.90;37.90;;;-7.70;91.00;;;;;;5054841;28;20254;-89
2024/01/09 06:50:10;;;;;;;45.10;40.87;;;-7.60;91.00;;;;;;5036886;28;20672;-90
2024/01/09 06:52:36;;;;;;;41.53;37.73;;;-7.60;91.00;;;;;;5036964;28;20197;-90
2024/01/09 06:55:03;;;;;;;42.07;36.33;;;-7.60;90.90;;;;;;5037202;28;20192;-89
2024/01/09 06:57:29;;;;;;;32.23;25.90;;;-7.50;90.90;;;;;;5053501;28;20175;-89
2024/01/09 06:59:55;;;;;;;32.27;24.53;;;-7.60;90.80;;;;;;5037157;28;20244;-89
2024/01/09 07:02:21;;;;;;;46.47;41.63;;;-7.50;90.90;;;;;;5036877;28;20596;-89
2024/01/09 07:04:47;;;;;;;44.15;39.65;;;-7.40;90.90;;;;;;5036943;28;20265;-89
2024/01/09 07:07:12;;;;;;;;;;;-7.40;90.80;;;;;;5055412;28;20022;-90
2024/01/09 07:09:38;;;;;;;;;;;-7.50;90.80;;;;;;5054948;28;20353;-89
2024/01/09 07:12:04;;;;;;;;;;;-7.50;90.70;;;;;;5037260;28;20292;-89
2024/01/09 07:14:29;;;;;;;;;;;-7.50;90.70;;;;;;5037201;28;19930;-89
2024/01/09 07:16:55;;;;;;;;;;;-7.60;90.70;;;;;;5037381;28;19996;-89
2024/01/09 07:19:20;;;;;;;;;;;-7.60;90.70;;;;;;5039125;28;19912;-89
2024/01/09 07:21:46;;;;;;;;;;;-7.60;90.70;;;;;;5037287;28;19928;-89
2024/01/09 07:24:11;;;;;;;;;;;-7.60;90.70;;;;;;5036602;28;19908;-89
2024/01/09 07:26:41;;;;;;;;;;;-7.60;90.70;;;;;;5037342;28;19905;-89
2024/01/09 07:29:06;;;;;;;;;;;-7.60;90.70;;;;;;5054351;28;19984;-89
2024/01/09 07:31:32;;;;;;;;;;;-7.60;90.60;;;;;;5036533;28;19963;-90
2024/01/09 07:33:58;;;;;;;;;;;-7.70;90.60;;;;;;5036361;28;20439;-89
2024/01/09 07:36:23;;;;;;;;;;;-7.70;90.60;;;;;;5036426;28;20280;-89
2024/01/09 07:38:48;;;;;;;;;;;-7.70;90.70;;;;;;5036732;28;19905;-89
2024/01/09 07:41:17;;;;;;;27.83;24.83;;;-7.70;90.60;;;;;;5035866;28;20426;-89
2024/01/09 07:43:43;;;;;;;28.77;25.00;;;-7.80;90.60;;;;;;5051801;28;20172;-89
2024/01/09 07:46:10;;;;;;;28.50;25.37;;;-7.80;90.50;;;;;;5036978;28;20263;-89
2024/01/09 07:48:35;;;;;;;52.00;47.50;;;-7.80;90.50;;;;;;5053741;28;20529;-89
2024/01/09 07:51:01;;;;;;;;;;;-7.80;90.50;;;;;;5036379;28;19912;-89
2024/01/09 07:53:27;;;;;;;;;;;-7.80;90.40;;;;;;5036394;28;19916;-89
2024/01/09 07:55:53;;;;;;;;;;;-7.70;90.50;;;;;;5036678;28;19913;-89
2024/01/09 07:58:18;;;;;;;;;;;-7.70;90.40;;;;;;5054179;28;19912;-88
2024/01/09 08:00:44;;;;;;;;;;;-7.80;90.20;;;;;;5053797;28;19909;-90
2024/01/09 08:03:09;;;;;;;;;;;-7.70;90.30;;;;;;5036164;28;19927;-89
2024/01/09 08:05:34;;;;;;;;;;;-7.70;90.10;;;;;;5035907;28;19905;-89
2024/01/09 08:08:00;;;;;;;;;;;-7.60;90.10;;;;;;5035882;28;19938;-89
2024/01/09 08:10:26;;;;;;;;;;;-7.60;90.00;;;;;;5035586;28;19951;-90
2024/01/09 08:12:52;;;;;;;;;;;-7.70;89.80;;;;;;5035917;28;19948;-89
2024/01/09 08:15:17;;;;;;;;;;;-7.70;89.70;;;;;;5035770;28;20327;-90
2024/01/09 08:17:43;;;;;;;;;;;-7.70;89.70;;;;;;5036101;28;19956;-90
2024/01/09 08:20:08;;;;;;;;;;;-7.60;89.70;;;;;;5054050;28;19905;-89
2024/01/09 08:22:34;;;;;;;;;;;-7.60;89.70;;;;;;5035871;28;20296;-89
2024/01/09 08:25:00;;;;;;;;;;;-7.60;89.50;;;;;;5035650;28;19908;-90
2024/01/09 08:27:26;;;;;;;;;;;-7.60;89.50;;;;;;5053880;28;19912;-89
2024/01/09 08:29:51;;;;;;;;;;;-7.60;89.40;;;;;;5035890;28;19999;-89
2024/01/09 08:32:18;;;;;;;;;;;-7.50;89.30;;;;;;5035563;28;19912;-89
2024/01/09 08:34:43;;;;;;;;;;;-7.50;89.20;;;;;;5053630;28;19905;-89
2024/01/09 08:37:09;;;;;;;;;;;-7.50;89.00;;;;;;5036137;28;19912;-87
2024/01/09 08:39:34;;;;;;;;;;;-7.50;88.70;;;;;;5035552;28;20352;-90
2024/01/09 08:42:00;;;;;;;;;;;-7.50;88.60;;;;;;5035581;28;19955;-89
2024/01/09 08:44:27;;;;;;;;;;;-7.50;88.50;;;;;;5035635;28;19905;-89
2024/01/09 08:46:52;;;;;;;;;;;-7.50;88.60;;;;;;5036004;28;19999;-89
2024/01/09 08:49:18;;;;;;;;;;;-7.30;88.70;;;;;;5036117;28;20336;-89
2024/01/09 08:51:43;;;;;;;;;;;-7.10;88.90;;;;;;5036023;28;19909;-89
2024/01/09 08:54:08;;;;;;;;;;;-6.90;89.20;;;;;;5036080;28;19966;-89
2024/01/09 08:56:34;;;;;;;;;;;-6.80;89.30;;;;;;5039643;28;19971;-89
2024/01/09 08:59:00;;;;;;;;;;;-6.70;89.50;;;;;;5039536;28;19909;-89
2024/01/09 09:01:26;;;;;;;;;;;-6.60;89.70;;;;;;5055694;28;20479;-89
2024/01/09 09:03:51;;;;;;;;;;;-6.50;89.70;;;;;;5039367;28;19946;-89
2024/01/09 09:06:18;;;;;;;;;;;-6.60;89.80;;;;;;5057174;28;19931;-89
2024/01/09 09:08:43;;;;;;;;;;;-6.70;89.70;;;;;;5039217;28;19904;-89
2024/01/09 09:11:10;;;;;;;;;;;-6.80;89.70;;;;;;5057654;28;19905;-87
2024/01/09 09:13:35;;;;;;;;;;;-6.80;89.90;;;;;;5042196;28;19912;-89
2024/01/09 09:16:01;;;;;;;;;;;-6.80;89.90;;;;;;5041191;28;20379;-90
2024/01/09 09:18:27;;;;;;;;;;;-6.80;89.90;;;;;;5059228;28;19948;-90
2024/01/09 09:20:53;;;;;;;39.03;29.90;;;-6.80;90.00;;;;;;5039301;28;20348;-88
2024/01/09 09:23:18;;;;;;;40.07;30.13;;;-6.70;90.00;;;;;;5056822;28;20165;-89
2024/01/09 09:25:44;;;;;;;34.33;27.73;;;-6.70;90.10;;;;;;5057632;28;20259;-89
2024/01/09 09:28:09;;;;;;;34.03;28.77;;;-6.70;90.10;;;;;;5038806;28;20172;-89
2024/01/09 09:30:35;;;;;;;45.77;41.27;;;-6.60;90.20;;;;;;5055200;28;20620;-89
2024/01/09 09:33:00;;;;;;;46.93;42.13;;;-6.50;90.30;;;;;;5038697;28;20207;-89
2024/01/09 09:35:26;;;;;;;47.90;43.03;;;-6.50;90.20;;;;;;5038715;28;20259;-89
2024/01/09 09:37:51;;;;;;;37.77;33.13;;;-6.50;90.20;;;;;;5039221;28;20654;-89
2024/01/09 09:40:17;;;;;;;39.17;29.93;;;-6.50;90.30;;;;;;5038508;28;20214;-88
2024/01/09 09:42:45;;;;;;;52.77;46.17;;;-6.40;90.40;;;;;;5038694;28;20187;-89
2024/01/09 09:45:14;;;;;;;51.67;46.10;;;-6.20;90.50;;;;;;5038198;28;20644;-89
2024/01/09 09:47:40;;;;;;;43.37;31.60;;;-6.00;90.70;;;;;;5038216;28;20208;-88
2024/01/09 09:50:09;;;;;;;46.40;33.33;;;-5.70;90.90;;;;;;5056026;28;20196;-89
2024/01/09 09:52:40;;;;;;;48.60;43.57;;;-5.60;90.90;;;;;;5037964;28;20205;-89
2024/01/09 09:55:06;;;;;;;50.13;41.10;;;-5.60;91.00;;;;;;5038637;28;20184;-89
2024/01/09 09:57:32;;;;;;;47.37;42.30;;;-5.60;91.10;;;;;;5037754;28;20601;-89
2024/01/09 09:59:58;;;;;;;57.03;41.70;;;-5.50;91.20;;;;;;5037628;28;20192;-89
2024/01/09 10:02:27;;;;;;;50.77;42.27;;;-5.40;91.30;;;;;;5037687;28;20234;-90
2024/01/09 10:04:56;;;;;;;53.27;41.60;;;-5.20;91.50;;;;;;5038004;28;20173;-90
2024/01/09 10:07:22;;;;;;;48.37;41.10;;;-5.20;91.50;;;;;;5036820;28;20226;-90
2024/01/09 10:09:53;;;;;;;53.40;43.50;;;-5.10;91.60;;;;;;5038118;28;20234;-89
2024/01/09 10:12:22;;;;;;;53.87;42.67;;;-5.00;91.80;;;;;;5037771;28;20253;-89
2024/01/09 10:15:08;;;;;;;52.63;41.03;;;-4.90;91.90;;;;;;5038436;28;20206;-90
2024/01/09 10:17:34;;;;;;;;;;;-4.80;92.00;;;;;;5037814;28;20369;-89
2024/01/09 10:20:00;;;;;;;;;;;-4.70;92.00;;;;;;5038066;28;19967;-89
2024/01/09 10:22:29;;;;;;;;;;;-4.70;92.00;;;;;;5038542;28;20252;-89
2024/01/09 10:24:56;;;;;;;61.80;44.13;;;-4.60;92.10;;;;;;5037864;28;19995;-90
2024/01/09 10:27:21;;;;;;;45.17;34.07;;;-4.50;92.30;;;;;;5037823;28;20643;-90
2024/01/09 10:29:47;;;;;;;47.73;34.17;;;-4.40;92.30;;;;;;5037893;28;20192;-91
2024/01/09 10:32:19;;;;;;;52.20;34.50;;;-4.30;92.40;;;;;;5037492;28;20182;-90
2024/01/09 10:34:44;;;;;;;48.37;41.57;;;-4.30;92.40;;;;;;5038140;28;20149;-89
2024/01/09 10:37:15;;;;;;;53.53;41.17;;;-4.20;92.40;;;;;;5037638;28;20207;-89
2024/01/09 10:39:42;;;;;;;50.57;41.00;;;-4.20;92.40;;;;;;5037100;28;20214;-90
2024/01/09 10:42:11;;;;;;;48.80;39.67;;;-4.20;92.50;;;;;;5037121;28;20238;-89
2024/01/09 10:44:40;;;;;;;48.07;38.60;;;-4.10;92.60;;;;;;5036920;28;20258;-89
2024/01/09 10:47:10;;;;;;;54.97;41.13;;;-3.90;92.60;;;;;;5037968;28;20243;-89
2024/01/09 10:49:39;;;;;;;51.57;41.83;;;-3.90;92.70;;;;;;5039201;28;20258;-91
2024/01/09 10:52:13;;;;;;;50.47;41.47;;;-3.80;92.70;;;;;;5048433;28;20243;-92
2024/01/09 10:54:45;;;;;;;47.27;39.17;;;-3.80;92.70;;;;;;5052307;28;20204;-92
2024/01/09 10:57:16;;;;;;;45.43;37.00;;;-3.60;92.80;;;;;;5042847;28;20656;-92
2024/01/09 10:59:43;;;;;;;48.53;37.37;;;-3.60;92.70;;;;;;5046295;28;20215;-92
2024/01/09 11:02:25;;;;;;;45.10;38.87;;;-3.60;92.70;;;;;;5046093;28;20185;-91
2024/01/09 11:04:50;;;;;;;44.03;36.67;;;-3.50;92.70;;;;;;5038679;28;20203;-89
2024/01/09 11:07:17;;;;;;;42.67;37.97;;;-3.40;92.80;;;;;;5036393;28;20205;-90
2024/01/09 11:09:44;;;;;;;49.47;38.83;;;-3.40;92.80;;;;;;5036702;28;20215;-89
2024/01/09 11:12:20;;;;;;;42.23;30.63;;;-3.30;92.80;;;;;;5039773;28;20176;-90
2024/01/09 11:14:52;;;;;;;44.47;30.57;;;-3.30;92.70;;;;;;5039735;28;20170;-90
2024/01/09 11:17:19;;;;;;;42.33;37.17;;;-3.20;92.70;;;;;;5040483;28;20168;-90
2024/01/09 11:19:45;;;;;;;42.57;37.97;;;-3.10;92.60;;;;;;5061197;28;20190;-91
2024/01/09 11:22:18;;;;;;;48.53;39.57;;;-3.10;92.60;;;;;;5037902;28;20187;-90
2024/01/09 11:24:47;;;;;;;43.73;38.87;;;-3.00;92.50;;;;;;5037345;28;20184;-91
2024/01/09 11:27:14;;;;;;;45.40;40.53;;;-3.00;92.50;;;;;;5055367;28;20227;-90
2024/01/09 11:29:53;;;;;;;48.20;42.53;;;-2.80;92.50;;;;;;5053906;28;20284;-88
2024/01/09 11:32:24;;;;;;;45.80;40.63;;;-2.70;92.40;;;;;;5055733;28;20175;-89
2024/01/09 11:35:08;;;;;;;44.93;39.90;;;-2.60;92.40;;;;;;5038074;28;20175;-89
2024/01/09 11:37:36;;;;;;;55.60;43.40;;;-2.50;92.20;;;;;;5038490;28;20645;-89
2024/01/09 11:40:02;;;;;;;47.00;41.63;;;-2.40;92.20;;;;;;5037603;28;20337;-90
2024/01/09 11:42:28;;;;;;;47.27;42.27;;;-2.30;92.10;;;;;;5037961;28;20226;-89
2024/01/09 11:44:53;;;;;;;47.03;42.20;;;-2.20;92.10;;;;;;5056245;28;20245;-90
2024/01/09 11:47:19;;;;;;;45.27;40.63;;;-2.10;92.10;;;;;;5038529;28;20176;-90
2024/01/09 11:49:45;;;;;;;46.67;41.63;;;-2.00;92.00;;;;;;5038660;28;20199;-89
2024/01/09 11:52:11;;;;;;;45.13;40.63;;;-1.80;92.10;;;;;;5038122;28;20180;-90
2024/01/09 11:54:37;;;;;;;35.67;29.93;;;-1.60;92.00;;;;;;5038138;28;20219;-90
2024/01/09 11:57:04;;;;;;;38.47;29.60;;;-1.40;91.90;;;;;;5039749;28;20168;-89
2024/01/09 11:59:33;;;;;;;38.43;29.00;;;-1.20;91.50;;;;;;5038803;28;20169;-90
2024/01/09 12:01:58;;;;;;;32.37;27.73;;;-0.90;91.30;;;;;;5037624;28;20234;-90
2024/01/09 12:04:24;;;;;;;31.03;27.83;;;-0.80;90.60;;;;;;5038411;28;20659;-89
2024/01/09 12:06:49;;;;;;;35.33;29.73;;;-0.70;90.30;;;;;;5042224;28;20742;-90
2024/01/09 12:09:18;;;;;;;32.27;28.70;;;-0.60;89.80;;;;;;5038427;28;20182;-89
2024/01/09 12:12:23;;;;;;;30.27;27.03;;;-0.50;89.50;;;;;;5041284;28;20179;-91
2024/01/09 12:15:38;;;;;;;32.60;29.20;;;-0.60;89.00;;;;;;5041297;28;20209;-90
2024/01/09 12:18:08;;;;;;;33.87;30.47;;;-0.60;88.90;;;;;;5058525;28;20182;-89
2024/01/09 12:26:53;;;;;;;34.00;30.67;;;-0.50;88.10;;;;;;5272307;22;20131;-89
2024/01/09 12:29:19;;;;;;;33.13;29.60;;;-0.60;87.80;;;;;;5060775;28;20174;-89
2024/01/09 12:31:46;;;;;;;34.33;31.03;;;-0.70;87.50;;;;;;5060540;28;20188;-91
2024/01/09 12:34:59;;;;;;;35.27;31.77;;;-0.70;87.50;;;;;;5056157;28;20225;-90
2024/01/09 12:37:35;;;;;;;35.87;32.27;;;-0.80;87.30;;;;;;5062102;28;20197;-91
2024/01/09 12:40:01;;;;;;;34.87;31.47;;;-0.90;87.30;;;;;;5060058;28;20246;-90
2024/01/09 12:42:36;;;;;;;56.23;51.33;;;-0.90;87.60;;;;;;5060943;28;20200;-90
2024/01/09 12:45:11;;;;;;;55.27;50.30;;;-0.90;87.70;;;;;;5043799;28;20178;-90
2024/01/09 12:47:43;;;;;;;54.60;49.73;;;-0.90;87.40;;;;;;5060228;28;20181;-91